Time;durP1;ratioP1;P1;durP2;ratioP2;P2;SDS_P1;SDS_P2;PMS_P1;PMS_P2;Temp;Humidity;BMP_temperature;BMP_pressure;BME280_temperature;BME280_humidity;BME280_pressure;Samples;Min_cycle;Max_cycle;Signal;HPM_P1;HPM_P2
2022/07/07 00:01:53;;;;;;;4.50;4.10;;;;;;;15.47;75.15;99013.86;219938;1278;24282;-72
2022/07/07 00:06:59;;;;;;;5.10;4.60;;;;;;;15.49;75.07;99017.36;219878;1278;22550;-72
2022/07/07 00:12:29;;;;;;;5.50;5.00;;;;;;;15.53;75.27;99006.08;219944;1278;26064;-72
2022/07/07 00:17:32;;;;;;;5.30;4.80;;;;;;;15.55;75.18;99004.45;219583;1276;343623;-71
2022/07/07 00:22:34;;;;;;;4.80;4.30;;;;;;;15.56;75.26;99010.84;219822;1277;24258;-72
2022/07/07 00:27:40;;;;;;;4.70;4.30;;;;;;;15.56;75.25;99008.30;219628;1278;22607;-72
2022/07/07 00:32:48;;;;;;;5.10;4.50;;;;;;;15.54;75.13;99008.52;219877;1278;22547;-72
2022/07/07 00:37:54;;;;;;;6.30;4.60;;;;;;;15.50;75.31;99000.66;219638;1278;24306;-72
2022/07/07 00:42:59;;;;;;;7.00;5.20;;;;;;;15.42;75.29;98994.52;219874;1278;24302;-72
2022/07/07 00:48:01;;;;;;;6.70;4.60;;;;;;;15.32;75.39;98985.58;219811;1278;24395;-71
2022/07/07 00:53:08;;;;;;;5.70;5.10;;;;;;;15.23;75.67;98979.69;219909;1278;22567;-72
2022/07/07 00:58:17;;;;;;;6.10;5.40;;;;;;;15.16;75.93;98979.60;220030;1276;24265;-72
2022/07/07 01:03:23;;;;;;;5.40;4.90;;;;;;;15.13;76.07;98986.39;219901;1278;24275;-72
2022/07/07 01:08:26;;;;;;;5.80;5.30;;;;;;;15.11;76.31;98988.13;219932;1278;22559;-73
2022/07/07 01:13:29;;;;;;;5.80;5.00;;;;;;;15.09;76.42;98988.37;219939;1278;22596;-71
2022/07/07 01:18:31;;;;;;;7.10;5.40;;;;;;;15.09;76.56;98979.65;219894;1276;22789;-71
2022/07/07 01:23:34;;;;;;;5.50;5.00;;;;;;;15.09;76.67;98969.17;219954;1277;22576;-73
2022/07/07 01:28:42;;;;;;;6.40;5.80;;;;;;;15.09;76.83;98958.91;220125;1277;27195;-72
2022/07/07 01:33:45;;;;;;;6.40;5.80;;;;;;;15.06;76.90;98962.02;220110;1278;23128;-72
2022/07/07 01:38:52;;;;;;;7.20;6.10;;;;;;;15.02;77.00;98968.30;219983;1277;23981;-71
2022/07/07 01:43:55;;;;;;;6.10;5.30;;;;;;;14.99;77.10;98969.23;220155;1278;22601;-72
2022/07/07 01:48:57;;;;;;;5.40;4.90;;;;;;;14.97;77.26;98960.13;219867;1276;22548;-72
2022/07/07 01:54:01;;;;;;;6.10;5.50;;;;;;;14.92;77.55;98959.95;220076;1277;25377;-71
2022/07/07 01:59:04;;;;;;;6.40;5.80;;;;;;;14.83;77.96;98954.46;219803;1276;25301;-72
2022/07/07 02:04:10;;;;;;;7.00;6.40;;;;;;;14.70;78.15;98952.55;219827;1277;24355;-71
2022/07/07 02:09:21;;;;;;;6.60;5.60;;;;;;;14.55;78.25;98951.02;219865;1277;23353;-72
2022/07/07 02:14:26;;;;;;;6.40;5.80;;;;;;;14.39;78.54;98955.77;219964;1278;22627;-71
2022/07/07 02:19:28;;;;;;;6.60;5.90;;;;;;;14.26;78.95;98951.34;219909;1276;22633;-73
2022/07/07 02:24:37;;;;;;;6.50;5.90;;;;;;;14.17;79.39;98954.80;219806;1278;22570;-72
2022/07/07 02:29:42;;;;;;;6.50;5.70;;;;;;;14.08;79.70;98951.52;219805;1278;25358;-71
2022/07/07 02:34:45;;;;;;;7.10;6.40;;;;;;;13.99;79.89;98955.77;219556;1276;22568;-72
2022/07/07 02:39:51;;;;;;;7.70;6.90;;;;;;;13.90;80.12;98954.36;219867;1277;22549;-71
2022/07/07 02:44:58;;;;;;;7.40;6.20;;;;;;;13.85;80.35;98958.10;219961;1277;25256;-71
2022/07/07 02:50:04;;;;;;;6.20;5.60;;;;;;;13.84;80.61;98952.62;220045;1277;24603;-73
2022/07/07 02:55:10;;;;;;;7.40;6.40;;;;;;;13.84;80.92;98957.46;219843;1277;24123;-72
2022/07/07 03:00:13;;;;;;;7.90;7.10;;;;;;;13.84;81.04;98962.54;219962;1277;22537;-72
2022/07/07 03:05:15;;;;;;;8.40;7.60;;;;;;;13.86;81.10;98956.89;220015;1277;22625;-72
2022/07/07 03:10:39;;;;;;;7.00;6.40;;;;;;;13.90;81.18;98954.42;219736;1277;25303;-71
2022/07/07 03:16:01;;;;;;;7.80;6.70;;;;;;;13.90;81.21;98951.84;219849;1277;25454;-72
2022/07/07 03:21:05;;;;;;;6.90;6.20;;;;;;;13.87;81.21;98957.46;219965;1276;22785;-72
2022/07/07 03:26:08;;;;;;;6.60;5.90;;;;;;;13.86;81.23;98954.50;219815;1276;24280;-71
2022/07/07 03:31:11;;;;;;;6.10;5.50;;;;;;;13.89;81.37;98953.27;219763;1278;25745;-71
2022/07/07 03:36:25;;;;;;;7.90;7.20;;;;;;;14.01;81.52;98941.98;219904;1276;22656;-71
2022/07/07 03:41:31;;;;;;;7.30;6.10;;;;;;;14.29;81.40;98941.79;219863;1277;22833;-71
2022/07/07 03:46:37;;;;;;;8.60;7.30;;;;;;;14.55;80.79;98934.21;219969;1276;23334;-72
2022/07/07 03:51:42;;;;;;;7.60;6.90;;;;;;;14.92;80.68;98933.67;219667;1276;22661;-72
2022/07/07 03:56:45;;;;;;;10.50;9.50;;;;;;;15.23;79.75;98941.27;219938;1276;22544;-72
2022/07/07 04:01:48;;;;;;;6.50;5.90;;;;;;;15.37;79.29;98936.14;219854;1276;25823;-72
2022/07/07 04:07:11;;;;;;;6.80;6.20;;;;;;;15.41;78.65;98942.60;220020;1278;25315;-72
2022/07/07 04:12:43;;;;;;;6.60;6.10;;;;;;;15.39;78.40;98930.94;220033;1276;22575;-72
2022/07/07 04:18:02;;;;;;;7.40;6.60;;;;;;;15.54;78.87;98932.18;219942;1276;25378;-72
2022/07/07 04:23:24;;;;;;;7.00;6.40;;;;;;;15.84;79.14;98934.77;219695;1276;22584;-72
2022/07/07 04:28:38;;;;;;;7.10;5.90;;;;;;;15.98;78.17;98938.33;219887;1278;25326;-72
2022/07/07 04:34:02;;;;;;;6.20;5.60;;;;;;;15.97;77.94;98941.38;220128;1276;25383;-72
2022/07/07 04:39:09;;;;;;;6.90;6.30;;;;;;;16.01;77.84;98941.81;220041;1276;22779;-71
2022/07/07 04:44:20;;;;;;;7.30;6.60;;;;;;;15.95;77.26;98933.09;219951;1276;24122;-72
2022/07/07 04:49:36;;;;;;;6.90;6.20;;;;;;;15.87;77.58;98934.43;219985;1276;24265;-72
2022/07/07 04:54:39;;;;;;;7.70;6.10;;;;;;;15.85;77.33;98932.66;220121;1276;24162;-72
2022/07/07 04:59:45;;;;;;;7.70;6.50;;;;;;;15.83;77.25;98935.37;219725;1276;24399;-73
2022/07/07 05:04:51;;;;;;;7.40;6.30;;;;;;;15.93;77.42;98933.52;220030;1276;24323;-72
2022/07/07 05:09:53;;;;;;;7.10;6.50;;;;;;;15.95;76.74;98933.85;219908;1276;24323;-72
2022/07/07 05:15:21;;;;;;;6.70;6.10;;;;;;;16.02;77.00;98926.52;219831;1276;24318;-71
2022/07/07 05:20:43;;;;;;;6.80;6.10;;;;;;;16.23;76.98;98932.20;219953;1276;22537;-71
2022/07/07 05:25:46;;;;;;;7.50;6.00;;;;;;;16.41;76.72;98932.61;219909;1276;22479;-71
2022/07/07 05:30:49;;;;;;;7.10;5.90;;;;;;;16.56;75.94;98932.07;219860;1276;23188;-71
2022/07/07 05:35:55;;;;;;;6.20;5.60;;;;;;;16.76;75.45;98933.11;220288;1276;22591;-72
2022/07/07 05:41:09;;;;;;;7.30;5.30;;;;;;;16.91;75.08;98931.30;220369;1276;24669;-71
2022/07/07 05:46:12;;;;;;;5.80;5.30;;;;;;;17.17;75.04;98929.08;220507;1276;25638;-71
2022/07/07 05:51:18;;;;;;;6.80;4.40;;;;;;;17.45;74.67;98926.58;220226;1276;23034;-71
2022/07/07 05:56:21;;;;;;;5.20;4.60;;;;;;;17.68;72.86;98925.85;220359;1276;22742;-71
2022/07/07 06:01:40;;;;;;;4.90;4.40;;;;;;;17.83;72.44;98924.70;220418;1275;22602;-71
2022/07/07 06:07:00;;;;;;;4.60;4.10;;;;;;;18.03;71.61;98923.22;220372;1277;22538;-72
2022/07/07 06:12:07;;;;;;;5.40;4.10;;;;;;;18.23;71.23;98925.63;220386;1276;22603;-72
2022/07/07 06:17:23;;;;;;;4.70;4.20;;;;;;;18.36;69.81;98927.05;220453;1276;22549;-71
2022/07/07 06:23:02;;;;;;;5.20;4.70;;;;;;;18.53;69.12;98919.33;220394;1276;22750;-72
2022/07/07 06:28:05;;;;;;;6.60;4.20;;;;;;;18.66;67.70;98923.32;220276;1276;23402;-71
2022/07/07 06:33:12;;;;;;;4.60;4.20;;;;;;;19.00;67.75;98924.77;220561;1276;24338;-70
2022/07/07 06:38:22;;;;;;;4.80;4.30;;;;;;;19.36;66.78;98925.08;220535;1276;25258;-70
2022/07/07 06:43:25;;;;;;;4.30;3.90;;;;;;;19.61;65.42;98922.07;220533;1276;25860;-72
2022/07/07 06:48:27;;;;;;;9.80;4.30;;;;;;;19.58;63.52;98919.13;220619;1276;25500;-71
2022/07/07 06:53:30;;;;;;;5.50;4.50;;;;;;;19.61;64.25;98916.64;220232;1276;25387;-71
2022/07/07 06:58:32;;;;;;;5.40;4.40;;;;;;;19.73;64.09;98907.71;220355;1276;25481;-72
2022/07/07 07:03:35;;;;;;;4.60;4.00;;;;;;;19.82;63.72;98909.48;220216;1276;25251;-72
2022/07/07 07:08:38;;;;;;;5.00;3.60;;;;;;;19.86;63.20;98910.34;220390;1276;22695;-71
2022/07/07 07:13:41;;;;;;;5.30;3.80;;;;;;;19.97;62.52;98911.80;220628;1276;22566;-71
2022/07/07 07:18:45;;;;;;;5.00;4.00;;;;;;;20.17;62.41;98914.80;220501;1276;22572;-71
2022/07/07 07:23:48;;;;;;;5.90;4.10;;;;;;;20.60;61.97;98915.58;220412;1276;22563;-71
2022/07/07 07:28:53;;;;;;;5.30;3.90;;;;;;;20.91;60.60;98913.61;220497;1276;25431;-73
2022/07/07 07:33:56;;;;;;;2.80;2.40;;;;;;;21.20;59.93;98911.28;220339;1276;22835;-71
2022/07/07 07:38:58;;;;;;;9.80;4.10;;;;;;;21.28;56.35;98908.50;220566;1276;25373;-71
2022/07/07 07:44:11;;;;;;;3.80;2.20;;;;;;;21.30;55.60;98900.75;220587;1276;25252;-71
2022/07/07 07:49:16;;;;;;;3.60;2.60;;;;;;;21.47;55.60;98897.83;220345;1276;22575;-71
2022/07/07 07:54:18;;;;;;;3.60;2.60;;;;;;;21.51;53.94;98895.44;220558;1276;22698;-72
2022/07/07 07:59:40;;;;;;;4.20;3.70;;;;;;;21.47;54.04;98896.89;220402;1276;22666;-71
2022/07/07 08:05:10;;;;;;;4.80;3.50;;;;;;;21.46;53.85;98885.44;220422;1276;22548;-71
2022/07/07 08:10:14;;;;;;;4.50;2.80;;;;;;;21.47;53.59;98882.66;220534;1276;22542;-71
2022/07/07 08:15:17;;;;;;;4.00;3.20;;;;;;;21.63;54.29;98875.77;220828;1276;22610;-72
2022/07/07 08:20:22;;;;;;;4.70;3.10;;;;;;;21.76;53.03;98878.57;220536;1276;23266;-71
2022/07/07 08:25:25;;;;;;;3.30;3.00;;;;;;;21.85;53.73;98869.39;220324;1276;22581;-72
2022/07/07 08:30:30;;;;;;;4.30;2.80;;;;;;;22.16;54.21;98871.27;220612;1276;22574;-71
2022/07/07 08:35:46;;;;;;;3.60;2.70;;;;;;;22.41;53.36;98864.98;220474;1276;25303;-71
2022/07/07 08:40:48;;;;;;;4.40;2.60;;;;;;;22.53;52.51;98867.59;220621;1276;22560;-71
2022/07/07 08:45:52;;;;;;;3.70;2.30;;;;;;;22.65;51.85;98864.49;220568;1276;22593;-71
2022/07/07 08:50:59;;;;;;;2.50;2.30;;;;;;;22.73;51.15;98857.20;220654;1276;22563;-71
2022/07/07 08:56:05;;;;;;;3.00;2.50;;;;;;;22.82;50.00;98855.61;220668;1276;22563;-70
2022/07/07 09:01:08;;;;;;;3.80;2.60;;;;;;;22.84;50.17;98849.25;220356;1276;22477;-70
2022/07/07 09:06:12;;;;;;;2.50;2.30;;;;;;;22.67;48.75;98854.85;220428;1276;23206;-70
2022/07/07 09:11:14;;;;;;;4.10;2.30;;;;;;;22.59;49.42;98850.99;220381;1276;22539;-70
2022/07/07 09:16:42;;;;;;;6.40;2.90;;;;;;;22.82;49.12;98846.02;219972;1276;25078;-71
2022/07/07 09:21:46;;;;;;;3.40;2.40;;;;;;;23.09;48.96;98843.82;220355;1276;22572;-70
2022/07/07 09:26:58;;;;;;;2.80;2.40;;;;;;;23.22;47.92;98848.84;220593;1276;22817;-71
2022/07/07 09:32:08;;;;;;;3.20;2.40;;;;;;;23.27;48.00;98847.57;220425;1276;22829;-71
2022/07/07 09:42:33;;;;;;;2.40;1.70;;;;;;;23.18;46.81;98844.25;220475;1276;22536;-71
2022/07/07 09:47:35;;;;;;;4.70;1.90;;;;;;;23.07;46.45;98845.89;220878;1276;25258;-71
2022/07/07 09:52:47;;;;;;;7.00;6.30;;;;;;;23.14;46.60;98848.89;220691;1276;22672;-71
2022/07/07 09:57:50;;;;;;;2.60;2.40;;;;;;;23.37;46.10;98841.05;220452;1276;25830;-70
2022/07/07 10:02:54;;;;;;;2.90;2.60;;;;;;;23.86;46.63;98840.41;220487;1276;22544;-70
2022/07/07 10:07:58;;;;;;;2.00;1.90;;;;;;;24.25;45.13;98833.73;220574;1276;22570;-70
2022/07/07 10:13:03;;;;;;;2.30;2.00;;;;;;;24.28;44.06;98835.78;220657;1276;22570;-71
2022/07/07 10:18:05;;;;;;;4.90;1.90;;;;;;;24.08;44.59;98834.13;220674;1276;22557;-71
2022/07/07 10:23:08;;;;;;;3.70;2.00;;;;;;;23.93;44.62;98829.40;220519;1276;22490;-72
2022/07/07 10:28:10;;;;;;;2.10;1.90;;;;;;;24.17;45.16;98822.95;220511;1276;22564;-72
2022/07/07 10:33:13;;;;;;;2.90;2.20;;;;;;;24.17;44.13;98823.11;220704;1276;24234;-71
2022/07/07 10:38:17;;;;;;;2.40;2.00;;;;;;;24.24;44.42;98817.54;220523;1276;22723;-70
2022/07/07 10:43:38;;;;;;;2.40;2.00;;;;;;;24.48;44.11;98810.52;220719;1276;22700;-72
2022/07/07 10:48:52;;;;;;;2.80;2.40;;;;;;;24.65;44.13;98803.83;220762;1276;22544;-71
2022/07/07 10:54:10;;;;;;;2.60;2.20;;;;;;;24.93;43.90;98801.55;220775;1276;22537;-72
2022/07/07 10:59:23;;;;;;;1.80;1.60;;;;;;;25.14;43.10;98794.91;220646;1276;22580;-71
2022/07/07 11:04:47;;;;;;;2.20;2.00;;;;;;;25.04;42.35;98798.78;220695;1276;22622;-71
2022/07/07 11:10:17;;;;;;;;;;;;;;;;;;;;;
2022/07/07 11:15:22;;;;;;;2.80;2.50;;;;;;;24.82;41.83;98784.05;220456;1276;22552;-71
2022/07/07 11:20:32;;;;;;;3.00;2.70;;;;;;;24.89;42.76;98779.39;220525;1276;23502;-72
2022/07/07 11:25:38;;;;;;;2.70;2.50;;;;;;;25.07;41.79;98779.30;220582;1276;25378;-73
2022/07/07 11:30:40;;;;;;;4.30;2.40;;;;;;;24.91;41.53;98774.54;220301;1276;24731;-74
2022/07/07 11:35:43;;;;;;;3.20;2.30;;;;;;;24.75;41.86;98771.66;220524;1277;22606;-73
2022/07/07 11:40:49;;;;;;;6.70;5.60;;;;;;;24.84;42.32;98766.13;220536;1276;26041;-73
2022/07/07 11:45:54;;;;;;;3.90;2.80;;;;;;;25.01;41.92;98763.94;220553;1276;26563;-73
2022/07/07 11:50:57;;;;;;;3.40;2.90;;;;;;;25.07;41.52;98760.42;220532;1276;22580;-73
2022/07/07 11:56:00;;;;;;;3.10;2.60;;;;;;;24.96;41.73;98757.50;220551;1277;25293;-73
2022/07/07 12:01:11;;;;;;;3.80;2.60;;;;;;;24.85;42.24;98755.80;220948;1276;25367;-73
2022/07/07 12:06:13;;;;;;;2.90;2.70;;;;;;;24.65;42.16;98753.05;220649;1276;22569;-72
2022/07/07 12:11:20;;;;;;;3.40;3.10;;;;;;;24.45;42.16;98753.55;220592;1276;22570;-73
2022/07/07 12:16:22;;;;;;;2.20;2.10;;;;;;;24.24;42.14;98753.02;212912;1276;10377938;-73
2022/07/07 12:21:26;;;;;;;1.90;1.80;;;;;;;23.95;42.96;98756.09;220543;1276;25590;-73
2022/07/07 12:26:28;;;;;;;1.90;1.70;;;;;;;23.57;43.85;98758.31;220491;1276;23058;-71
2022/07/07 12:31:31;;;;;;;3.50;2.80;;;;;;;23.15;44.64;98749.90;220517;1276;22551;-73
2022/07/07 12:36:34;;;;;;;2.50;1.90;;;;;;;22.71;45.22;98751.69;220398;1276;24994;-73
2022/07/07 12:41:38;;;;;;;3.30;2.50;;;;;;;22.33;46.68;98753.29;220318;1276;25220;-72
2022/07/07 12:46:42;;;;;;;4.10;3.00;;;;;;;21.93;48.22;98755.08;220580;1276;22490;-73
2022/07/07 12:51:58;;;;;;;4.40;2.50;;;;;;;21.61;50.32;98763.89;220547;1276;24789;-72
2022/07/07 12:57:27;;;;;;;3.60;2.00;;;;;;;21.42;51.58;98763.98;220527;1276;25275;-73
2022/07/07 13:02:39;;;;;;;2.10;2.00;;;;;;;21.48;52.08;98757.70;220806;1276;25381;-73
2022/07/07 13:07:41;;;;;;;3.30;2.40;;;;;;;21.68;51.67;98757.84;220652;1276;22541;-73
2022/07/07 13:12:47;;;;;;;2.60;2.30;;;;;;;21.84;51.46;98755.79;220777;1276;22484;-73
2022/07/07 13:17:50;;;;;;;2.80;2.20;;;;;;;22.02;52.06;98754.50;220612;1276;22545;-72
2022/07/07 13:22:53;;;;;;;2.60;2.40;;;;;;;22.30;53.40;98746.92;220769;1277;25958;-72
2022/07/07 13:27:55;;;;;;;4.20;2.50;;;;;;;22.87;53.26;98749.64;220696;1276;22801;-73
2022/07/07 13:32:58;;;;;;;2.60;2.40;;;;;;;23.37;52.35;98745.30;220629;1276;22562;-73
2022/07/07 13:38:03;;;;;;;2.70;2.50;;;;;;;23.46;51.01;98741.89;220764;1276;24903;-72
2022/07/07 13:43:06;;;;;;;2.10;1.90;;;;;;;23.62;51.21;98742.73;220285;1276;23019;-71
2022/07/07 13:48:09;;;;;;;2.10;2.00;;;;;;;23.71;49.46;98741.58;221407;1276;22557;-71
2022/07/07 13:53:11;;;;;;;1.60;1.50;;;;;;;23.78;47.82;98740.30;221260;1276;26796;-72
2022/07/07 13:58:13;;;;;;;1.80;1.70;;;;;;;23.71;46.70;98739.38;220895;1276;24316;-71
2022/07/07 14:03:15;;;;;;;1.90;1.80;;;;;;;23.69;46.61;98739.83;220511;1276;22543;-72
2022/07/07 14:08:18;;;;;;;3.40;2.40;;;;;;;23.70;46.29;98734.68;220380;1276;22570;-72
2022/07/07 14:13:26;;;;;;;2.30;2.10;;;;;;;23.70;46.08;98734.84;220265;1276;24449;-75
2022/07/07 14:18:29;;;;;;;2.40;2.20;;;;;;;23.83;45.77;98731.20;220038;1276;22560;-71
2022/07/07 14:23:41;;;;;;;3.50;2.40;;;;;;;23.96;45.28;98732.35;219875;1276;22572;-72
2022/07/07 14:28:44;;;;;;;2.20;2.00;;;;;;;24.04;44.79;98730.91;220039;1276;24233;-72
2022/07/07 14:33:47;;;;;;;2.50;2.30;;;;;;;24.08;44.80;98724.77;220095;1279;24824;-71
2022/07/07 14:38:57;;;;;;;2.10;1.80;;;;;;;24.28;44.43;98722.63;219988;1276;22581;-72
2022/07/07 14:44:01;;;;;;;1.90;1.80;;;;;;;24.35;43.26;98719.00;220033;1276;22698;-71
2022/07/07 14:49:05;;;;;;;2.50;2.30;;;;;;;24.36;43.77;98717.04;220053;1276;22759;-71
2022/07/07 14:54:07;;;;;;;2.00;1.90;;;;;;;24.44;43.48;98723.05;220181;1276;24534;-72
2022/07/07 14:59:10;;;;;;;2.90;2.60;;;;;;;24.54;43.70;98717.78;220093;1276;24279;-72
2022/07/07 15:04:12;;;;;;;3.80;3.50;;;;;;;24.85;44.07;98716.05;220220;1276;23048;-73
2022/07/07 15:09:26;;;;;;;;;;;;;;;;;;;;;
2022/07/07 15:14:28;;;;;;;2.60;2.40;;;;;;;25.32;41.81;98714.93;220525;1277;24291;-72
2022/07/07 15:19:31;;;;;;;3.10;2.30;;;;;;;25.31;42.52;98716.73;219887;1276;24217;-72
2022/07/07 15:24:43;;;;;;;3.20;2.00;;;;;;;25.35;42.29;98715.66;220212;1276;22599;-73
2022/07/07 15:29:57;;;;;;;2.60;2.40;;;;;;;25.10;41.96;98721.61;220165;1276;22598;-71
2022/07/07 15:35:16;;;;;;;2.90;2.30;;;;;;;24.72;42.01;98718.10;220256;1276;22969;-71
2022/07/07 15:40:19;;;;;;;2.40;2.20;;;;;;;24.33;42.42;98723.52;219926;1276;22560;-72
2022/07/07 15:45:34;;;;;;;2.60;2.40;;;;;;;23.96;42.58;98721.77;220032;1276;24292;-71
2022/07/07 15:51:00;;;;;;;4.90;2.30;;;;;;;23.71;43.52;98720.70;220168;1276;22608;-72
2022/07/07 15:56:07;;;;;;;2.70;2.30;;;;;;;23.60;43.65;98721.48;220108;1278;22554;-72
2022/07/07 16:01:10;;;;;;;2.70;2.50;;;;;;;23.49;44.47;98725.20;219993;1278;23790;-71
2022/07/07 16:06:12;;;;;;;5.20;2.10;;;;;;;23.33;44.60;98727.46;220269;1276;22577;-72
2022/07/07 16:11:15;;;;;;;3.30;2.90;;;;;;;23.08;44.56;98725.94;220156;1276;22778;-71
2022/07/07 16:16:18;;;;;;;3.30;2.10;;;;;;;22.82;45.06;98727.20;220115;1276;23233;-72
2022/07/07 16:21:20;;;;;;;2.80;1.90;;;;;;;22.57;45.79;98725.63;219983;1277;22547;-72
2022/07/07 16:26:23;;;;;;;3.40;2.30;;;;;;;22.22;46.40;98722.48;220190;1276;22626;-71
2022/07/07 16:31:26;;;;;;;5.00;3.60;;;;;;;21.93;46.62;98722.20;220201;1276;22645;-72
2022/07/07 16:36:38;;;;;;;4.70;4.30;;;;;;;21.72;47.02;98724.65;220271;1279;22748;-72
2022/07/07 16:41:42;;;;;;;2.30;2.10;;;;;;;21.56;47.56;98729.05;220354;1276;22560;-72
2022/07/07 16:46:47;;;;;;;4.70;1.90;;;;;;;21.36;48.91;98733.73;220306;1276;22709;-73
2022/07/07 16:51:50;;;;;;;2.30;1.60;;;;;;;21.03;48.90;98730.23;220378;1276;24228;-71
2022/07/07 16:56:55;;;;;;;2.20;1.60;;;;;;;20.70;49.00;98733.69;220303;1276;22738;-71
2022/07/07 17:01:58;;;;;;;1.60;1.40;;;;;;;20.52;49.39;98737.34;220110;1276;22936;-71
2022/07/07 17:07:00;;;;;;;2.50;1.40;;;;;;;20.37;49.86;98739.83;220521;1277;24232;-72
2022/07/07 17:12:06;;;;;;;1.20;1.10;;;;;;;20.27;49.84;98741.62;220432;1279;24359;-71
2022/07/07 17:17:08;;;;;;;1.80;1.50;;;;;;;20.18;50.30;98741.42;220205;1277;22697;-71
2022/07/07 17:22:11;;;;;;;10.10;6.40;;;;;;;20.13;50.42;98744.16;220313;1276;22714;-72
2022/07/07 17:27:21;;;;;;;3.90;2.30;;;;;;;20.11;51.03;98745.91;220301;1276;22542;-72
2022/07/07 17:32:24;;;;;;;2.60;1.70;;;;;;;20.06;51.11;98742.23;220212;1278;22543;-71
2022/07/07 17:37:27;;;;;;;4.10;1.80;;;;;;;20.03;51.20;98743.99;220303;1278;22586;-72
2022/07/07 17:42:30;;;;;;;1.70;1.40;;;;;;;19.97;51.55;98744.91;220446;1278;25425;-71
2022/07/07 17:47:32;;;;;;;3.80;2.30;;;;;;;19.93;52.08;98744.94;220454;1277;24250;-73
2022/07/07 17:52:35;;;;;;;2.80;1.50;;;;;;;19.91;52.15;98748.16;220322;1276;22559;-72
2022/07/07 17:57:43;;;;;;;2.60;1.60;;;;;;;19.87;52.27;98749.84;220453;1276;22616;-72
2022/07/07 18:02:50;;;;;;;2.90;1.70;;;;;;;19.82;52.31;98753.29;220405;1276;22594;-72
2022/07/07 18:07:53;;;;;;;1.40;1.20;;;;;;;19.76;52.64;98750.41;220323;1276;22577;-72
2022/07/07 18:12:55;;;;;;;1.40;1.30;;;;;;;19.69;52.90;98757.21;220317;1278;23826;-72
2022/07/07 18:17:59;;;;;;;2.20;1.30;;;;;;;19.62;53.45;98761.14;220272;1278;22647;-72
2022/07/07 18:23:04;;;;;;;1.60;1.50;;;;;;;19.56;53.76;98767.52;220376;1277;23260;-72
2022/07/07 18:28:06;;;;;;;2.90;1.40;;;;;;;19.48;54.16;98771.20;220330;1277;25389;-72
2022/07/07 18:33:09;;;;;;;1.80;1.20;;;;;;;19.40;54.35;98778.11;220418;1277;22501;-71
2022/07/07 18:38:12;;;;;;;2.80;1.60;;;;;;;19.31;54.36;98781.23;220603;1276;22530;-71
2022/07/07 18:43:15;;;;;;;1.80;1.60;;;;;;;19.21;54.89;98780.40;220586;1278;23231;-71
2022/07/07 18:48:17;;;;;;;2.30;1.40;;;;;;;19.09;55.27;98784.02;220628;1278;25434;-71
2022/07/07 18:53:20;;;;;;;2.70;1.40;;;;;;;18.94;55.62;98787.87;220809;1278;25374;-71
2022/07/07 18:58:22;;;;;;;2.80;1.50;;;;;;;18.80;55.88;98789.06;220940;1278;22555;-71
2022/07/07 19:03:24;;;;;;;1.90;1.60;;;;;;;18.69;56.36;98796.48;220812;1278;22608;-72
2022/07/07 19:08:27;;;;;;;4.10;1.50;;;;;;;18.59;56.56;98802.25;220823;1280;25390;-71
2022/07/07 19:13:30;;;;;;;2.70;1.60;;;;;;;18.51;56.80;98810.20;220551;1278;25751;-71
2022/07/07 19:18:32;;;;;;;2.90;1.40;;;;;;;18.42;57.03;98811.27;220722;1278;22621;-72
2022/07/07 19:23:36;;;;;;;4.30;1.40;;;;;;;18.35;57.26;98818.70;220428;1278;22544;-70
2022/07/07 19:28:38;;;;;;;2.10;1.40;;;;;;;18.28;57.51;98831.13;220838;1278;23772;-72
2022/07/07 19:33:40;;;;;;;1.90;1.50;;;;;;;18.23;57.68;98836.45;220594;1278;22564;-71
2022/07/07 19:38:43;;;;;;;2.10;1.70;;;;;;;18.19;57.95;98845.23;220701;1278;24203;-71
2022/07/07 19:43:45;;;;;;;2.40;1.60;;;;;;;18.17;58.39;98852.54;220253;1278;25403;-73
2022/07/07 19:48:50;;;;;;;1.90;1.50;;;;;;;18.13;58.59;98857.74;220370;1278;25512;-72
2022/07/07 19:53:52;;;;;;;2.60;1.60;;;;;;;18.08;58.87;98853.94;220457;1278;23466;-72
2022/07/07 19:58:55;;;;;;;1.50;1.40;;;;;;;18.05;59.10;98856.63;220436;1278;23194;-74
2022/07/07 20:04:18;;;;;;;1.60;1.50;;;;;;;17.98;59.23;98853.07;220681;1277;22490;-75
2022/07/07 20:09:21;;;;;;;1.50;1.40;;;;;;;17.92;59.47;98856.95;220520;1278;25549;-72
2022/07/07 20:14:26;;;;;;;2.30;1.50;;;;;;;17.85;59.64;98854.67;220409;1278;27263;-72
2022/07/07 20:19:29;;;;;;;2.00;1.50;;;;;;;17.78;59.85;98854.59;220523;1277;25315;-72
2022/07/07 20:24:38;;;;;;;1.40;1.30;;;;;;;17.71;60.12;98858.67;220655;1278;22724;-71
2022/07/07 20:29:41;;;;;;;5.70;1.90;;;;;;;17.62;60.35;98862.41;220709;1278;22651;-71
2022/07/07 20:34:44;;;;;;;2.10;1.50;;;;;;;17.56;60.61;98865.98;220736;1277;24204;-72
2022/07/07 20:39:46;;;;;;;1.70;1.60;;;;;;;17.47;60.88;98871.44;220776;1277;24394;-71
2022/07/07 20:44:49;;;;;;;1.80;1.40;;;;;;;17.36;60.99;98874.11;220566;1278;25269;-72
2022/07/07 20:50:24;;;;;;;5.70;1.70;;;;;;;17.26;61.23;98883.86;220821;1277;22640;-72
2022/07/07 20:55:29;;;;;;;2.30;1.60;;;;;;;17.17;61.52;98888.23;220901;1276;24204;-72
2022/07/07 21:00:31;;;;;;;2.00;1.80;;;;;;;17.09;61.72;98895.08;220733;1276;22761;-72
2022/07/07 21:05:34;;;;;;;2.80;1.90;;;;;;;17.04;61.88;98898.25;220923;1276;22628;-71
2022/07/07 21:10:37;;;;;;;2.10;1.70;;;;;;;17.00;62.12;98903.43;220830;1276;22666;-72
2022/07/07 21:15:39;;;;;;;2.90;1.90;;;;;;;16.94;62.37;98907.64;220717;1276;22543;-72
2022/07/07 21:20:42;;;;;;;4.30;2.20;;;;;;;16.90;62.58;98914.13;220751;1276;22551;-71
2022/07/07 21:25:47;;;;;;;1.90;1.70;;;;;;;16.86;62.74;98918.90;220830;1277;25627;-71
2022/07/07 21:30:50;;;;;;;3.30;2.10;;;;;;;16.83;62.97;98920.63;220696;1276;22543;-71
2022/07/07 21:35:53;;;;;;;3.30;2.10;;;;;;;16.80;63.16;98923.38;220666;1276;22489;-71
2022/07/07 21:40:58;;;;;;;2.70;2.20;;;;;;;16.77;63.32;98928.14;220607;1278;22586;-71
2022/07/07 21:46:02;;;;;;;2.80;1.80;;;;;;;16.71;63.59;98922.73;220765;1276;22573;-71
2022/07/07 21:51:04;;;;;;;3.90;2.30;;;;;;;16.66;63.71;98928.60;220894;1276;22605;-72
2022/07/07 21:56:09;;;;;;;3.70;2.30;;;;;;;16.58;64.05;98930.91;220695;1276;22587;-72
2022/07/07 22:01:25;;;;;;;2.80;2.30;;;;;;;16.53;64.25;98928.02;220858;1278;22688;-72
2022/07/07 22:07:03;;;;;;;3.00;2.40;;;;;;;16.45;64.60;98922.44;220599;1277;25373;-72
2022/07/07 22:12:08;;;;;;;2.60;2.10;;;;;;;16.39;64.96;98922.40;220811;1278;22573;-72
2022/07/07 22:17:10;;;;;;;2.50;2.30;;;;;;;16.32;65.22;98929.07;220799;1277;22567;-71
2022/07/07 22:22:20;;;;;;;2.60;2.40;;;;;;;16.26;65.50;98932.45;220675;1277;22561;-72
2022/07/07 22:27:30;;;;;;;4.30;2.20;;;;;;;16.19;65.81;98929.95;220815;1276;22610;-72
2022/07/07 22:32:32;;;;;;;3.70;2.70;;;;;;;16.13;66.20;98928.29;220404;1276;24281;-71
2022/07/07 22:37:35;;;;;;;5.10;2.60;;;;;;;16.07;66.47;98930.54;220639;1277;22647;-71
2022/07/07 22:42:39;;;;;;;6.20;3.20;;;;;;;16.01;66.78;98930.11;220503;1278;22621;-71
2022/07/07 22:47:42;;;;;;;4.20;2.60;;;;;;;15.96;67.12;98931.75;220768;1276;23344;-71
2022/07/07 22:52:45;;;;;;;3.10;2.80;;;;;;;15.91;67.28;98932.52;220446;1278;23215;-71
2022/07/07 22:57:47;;;;;;;2.70;2.50;;;;;;;15.84;67.60;98941.74;220544;1276;26402;-72
2022/07/07 23:02:49;;;;;;;3.50;2.60;;;;;;;15.77;67.71;98939.34;220724;1276;22565;-72
2022/07/07 23:08:01;;;;;;;3.10;2.80;;;;;;;15.71;68.21;98949.37;220372;1276;22594;-71
2022/07/07 23:13:17;;;;;;;3.30;2.80;;;;;;;15.65;68.31;98946.25;220621;1276;22569;-71
2022/07/07 23:18:38;;;;;;;3.80;2.70;;;;;;;15.60;68.57;98946.14;220243;1276;22563;-71
2022/07/07 23:23:41;;;;;;;3.90;3.10;;;;;;;15.55;68.93;98947.52;220237;1276;22705;-73
2022/07/07 23:29:28;;;;;;;4.50;3.00;;;;;;;15.49;69.12;98952.51;220380;1277;22916;-71
2022/07/07 23:34:29;;;;;;;3.90;2.60;;;;;;;15.41;69.23;98954.16;220382;1277;26535;-71
2022/07/07 23:39:32;;;;;;;3.20;2.80;;;;;;;15.36;69.48;98954.27;220155;1276;22636;-72
2022/07/07 23:44:37;;;;;;;3.50;2.80;;;;;;;15.29;69.75;98952.36;220063;1276;22570;-71
2022/07/07 23:49:40;;;;;;;3.50;2.90;;;;;;;15.22;70.00;98955.36;220081;1276;22661;-71
2022/07/07 23:54:42;;;;;;;3.60;2.90;;;;;;;15.16;70.25;98956.56;220092;1276;22556;-71